Time;durP1;ratioP1;P1;durP2;ratioP2;P2;SDS_P1;SDS_P2;PMS_P1;PMS_P2;Temp;Humidity;BMP_temperature;BMP_pressure;BME280_temperature;BME280_humidity;BME280_pressure;Samples;Min_cycle;Max_cycle;Signal;HPM_P1;HPM_P2
2022/01/20 00:00:21;;;;;;;7.15;3.63;;;4.20;1.00;;;;;;6369363;22;20190;-81
2022/01/20 00:02:56;;;;;;;8.48;4.18;;;4.20;1.00;;;;;;6362970;22;20218;-81
2022/01/20 00:05:37;;;;;;;9.88;5.40;;;4.20;1.00;;;;;;6364962;22;20212;-80
2022/01/20 00:08:19;;;;;;;7.78;3.65;;;4.20;1.00;;;;;;6364187;22;20558;-81
2022/01/20 00:27:22;;;;;;;16.70;3.88;;;4.10;1.00;;;;;;6366030;22;20216;-79
2022/01/20 00:32:51;;;;;;;10.27;3.40;;;4.10;1.00;;;;;;6304190;22;20297;-81
2022/01/20 00:35:23;;;;;;;14.15;4.57;;;4.10;1.00;;;;;;6365552;22;20178;-80
2022/01/20 00:37:49;;;;;;;11.13;4.03;;;4.10;1.00;;;;;;6362446;22;20273;-80
2022/01/20 00:40:17;;;;;;;10.55;4.03;;;4.10;1.00;;;;;;6362924;22;20186;-81
2022/01/20 00:42:45;;;;;;;6.95;3.47;;;4.10;1.00;;;;;;6366683;22;20198;-79
2022/01/20 00:45:13;;;;;;;9.38;2.92;;;4.20;1.00;;;;;;6367309;22;20249;-82
2022/01/20 00:47:40;;;;;;;10.00;4.57;;;4.20;1.00;;;;;;6384158;22;20372;-79
2022/01/20 00:50:09;;;;;;;7.28;4.00;;;4.30;1.00;;;;;;6367698;22;20975;-81
2022/01/20 00:52:37;;;;;;;10.48;4.50;;;4.30;1.00;;;;;;6368710;22;20200;-79
2022/01/20 00:55:06;;;;;;;13.40;5.00;;;4.30;1.00;;;;;;6367594;22;20187;-81
2022/01/20 00:57:33;;;;;;;17.58;4.75;;;4.40;1.00;;;;;;6365115;22;20194;-80
2022/01/20 01:00:02;;;;;;;15.50;3.70;;;4.40;1.00;;;;;;6364021;22;20620;-81
2022/01/20 01:02:33;;;;;;;15.15;4.80;;;4.40;1.00;;;;;;6364149;22;20202;-80
2022/01/20 01:05:00;;;;;;;14.43;3.85;;;4.40;1.00;;;;;;6369157;22;20212;-80
2022/01/20 01:07:44;;;;;;;12.55;3.88;;;4.40;1.00;;;;;;6367448;22;21072;-80
2022/01/20 01:10:12;;;;;;;11.00;3.35;;;4.40;1.00;;;;;;6362403;22;20616;-79
2022/01/20 01:12:48;;;;;;;14.13;4.45;;;4.40;1.00;;;;;;6366308;22;20244;-78
2022/01/20 01:15:23;;;;;;;12.45;3.95;;;4.40;1.00;;;;;;6364898;22;20235;-80
2022/01/20 01:20:56;;;;;;;10.45;3.03;;;4.20;1.00;;;;;;6365892;22;20186;-78
2022/01/20 01:23:22;;;;;;;9.77;3.03;;;4.20;1.00;;;;;;6365277;22;20831;-79
2022/01/20 01:25:50;;;;;;;14.75;4.25;;;4.10;1.00;;;;;;6358246;22;20240;-81
2022/01/20 01:28:19;;;;;;;8.55;2.72;;;4.10;1.00;;;;;;6362431;22;20293;-80
2022/01/20 01:31:14;;;;;;;14.38;3.47;;;4.10;1.00;;;;;;6362283;22;20197;-79
2022/01/20 01:33:54;;;;;;;11.90;3.95;;;4.10;1.00;;;;;;6366281;22;20285;-80
2022/01/20 01:36:23;;;;;;;10.32;3.72;;;4.10;1.00;;;;;;6364405;22;20194;-79
2022/01/20 01:38:53;;;;;;;11.77;2.78;;;4.10;1.00;;;;;;6390009;22;20205;-79
2022/01/20 01:41:29;;;;;;;22.73;5.50;;;4.00;1.00;;;;;;6365678;22;20320;-80
2022/01/20 01:44:02;;;;;;;11.68;2.97;;;4.00;1.00;;;;;;6364307;22;20186;-79
2022/01/20 01:46:34;;;;;;;8.13;3.55;;;3.90;1.00;;;;;;6367408;22;20235;-80
2022/01/20 01:49:01;;;;;;;14.18;4.78;;;3.90;1.00;;;;;;6355446;22;20198;-80
2022/01/20 01:51:28;;;;;;;15.13;4.30;;;3.80;1.00;;;;;;6363796;22;20497;-81
2022/01/20 01:53:58;;;;;;;14.73;3.65;;;3.70;1.00;;;;;;6391196;22;20195;-79
2022/01/20 01:56:31;;;;;;;17.23;4.93;;;3.70;1.00;;;;;;6367588;22;20194;-80
2022/01/20 01:58:59;;;;;;;12.13;3.67;;;3.70;1.00;;;;;;6363741;22;20198;-79
2022/01/20 02:01:28;;;;;;;14.40;3.30;;;3.70;1.00;;;;;;6363758;22;20194;-80
2022/01/20 02:04:01;;;;;;;15.25;4.57;;;3.60;1.00;;;;;;6364319;22;20691;-80
2022/01/20 02:06:50;;;;;;;16.15;4.07;;;3.60;1.00;;;;;;6364282;22;20191;-82
2022/01/20 02:09:32;;;;;;;14.48;4.97;;;3.60;1.00;;;;;;6364441;22;20197;-81
2022/01/20 02:17:57;;;;;;;8.30;3.00;;;3.50;1.00;;;;;;6366656;22;20194;-81
2022/01/20 02:20:29;;;;;;;14.45;3.80;;;3.50;1.00;;;;;;6361824;22;20194;-81
2022/01/20 02:22:59;;;;;;;8.13;3.10;;;3.40;1.00;;;;;;6379979;22;20224;-79
2022/01/20 02:25:29;;;;;;;14.80;3.90;;;3.40;1.00;;;;;;6378672;22;20277;-81
2022/01/20 02:27:58;;;;;;;10.85;3.40;;;3.40;1.00;;;;;;6365517;22;20197;-80
2022/01/20 02:30:27;;;;;;;12.80;3.30;;;3.40;1.00;;;;;;6364547;22;20728;-82
2022/01/20 02:32:56;;;;;;;14.27;5.03;;;3.40;1.00;;;;;;6367153;22;20194;-80
2022/01/20 02:35:27;;;;;;;10.57;2.80;;;3.40;1.00;;;;;;6365804;22;20607;-82
2022/01/20 02:38:05;;;;;;;11.45;2.92;;;3.40;1.00;;;;;;6365757;22;20190;-82
2022/01/20 02:46:07;;;;;;;9.85;3.55;;;3.30;1.00;;;;;;6374998;22;20275;-79
2022/01/20 02:48:34;;;;;;;8.82;3.28;;;3.20;1.00;;;;;;6370123;22;20724;-82
2022/01/20 02:51:02;;;;;;;9.88;3.00;;;3.30;1.00;;;;;;6368119;22;20192;-79
2022/01/20 02:53:30;;;;;;;9.77;3.05;;;3.30;1.00;;;;;;6366776;22;20194;-80
2022/01/20 02:55:58;;;;;;;13.48;3.70;;;3.20;1.00;;;;;;6368017;22;20216;-81
2022/01/20 02:58:25;;;;;;;11.05;2.67;;;3.20;1.00;;;;;;6368954;22;20319;-80
2022/01/20 03:00:52;;;;;;;5.22;2.17;;;3.20;1.00;;;;;;6364932;22;20190;-80
2022/01/20 03:03:19;;;;;;;7.75;2.38;;;3.20;1.00;;;;;;6366086;22;20194;-80
2022/01/20 03:05:46;;;;;;;10.20;2.97;;;3.20;1.00;;;;;;6365777;22;20224;-81
2022/01/20 03:08:16;;;;;;;9.43;3.08;;;3.20;1.00;;;;;;6373568;22;20234;-78
2022/01/20 03:10:46;;;;;;;10.93;3.45;;;3.20;1.00;;;;;;6380957;22;20190;-80
2022/01/20 03:13:14;;;;;;;13.55;3.22;;;3.10;1.00;;;;;;6364152;22;20279;-80
2022/01/20 03:15:42;;;;;;;12.20;3.60;;;3.10;1.00;;;;;;6365560;22;20198;-80
2022/01/20 03:18:10;;;;;;;11.23;2.75;;;3.10;1.00;;;;;;6365652;22;20197;-80
2022/01/20 03:20:42;;;;;;;9.85;2.60;;;3.10;1.00;;;;;;6362531;22;20289;-78
2022/01/20 03:23:11;;;;;;;6.53;2.78;;;3.10;1.00;;;;;;6366312;22;20190;-80
2022/01/20 03:25:38;;;;;;;6.43;3.00;;;3.10;1.00;;;;;;6367454;22;20674;-79
2022/01/20 03:28:06;;;;;;;11.55;3.10;;;3.20;1.00;;;;;;6369208;22;20190;-80
2022/01/20 03:30:37;;;;;;;11.52;2.72;;;3.20;1.00;;;;;;6390786;22;20285;-79
2022/01/20 03:33:06;;;;;;;8.75;2.53;;;3.20;1.00;;;;;;6393000;22;20194;-78
2022/01/20 03:35:34;;;;;;;8.30;2.30;;;3.20;1.00;;;;;;6391101;22;20174;-79
2022/01/20 03:38:01;;;;;;;8.55;2.60;;;3.30;1.00;;;;;;6383501;22;20190;-79
2022/01/20 03:40:29;;;;;;;7.40;2.67;;;3.20;1.00;;;;;;6385054;22;20210;-79
2022/01/20 03:42:56;;;;;;;6.80;2.63;;;3.10;1.00;;;;;;6372267;22;20210;-80
2022/01/20 03:45:28;;;;;;;8.13;2.80;;;3.00;1.00;;;;;;6365035;22;20204;-80
2022/01/20 03:48:09;;;;;;;6.35;2.00;;;2.80;1.00;;;;;;6367161;22;20186;-80
2022/01/20 03:53:26;;;;;;;14.45;2.78;;;2.80;1.00;;;;;;6365639;22;20226;-79
2022/01/20 03:55:53;;;;;;;9.90;2.83;;;2.80;1.00;;;;;;6367579;22;20209;-79
2022/01/20 03:58:22;;;;;;;8.82;2.75;;;2.80;1.00;;;;;;6374276;22;20317;-78
2022/01/20 04:00:54;;;;;;;12.43;2.83;;;2.90;1.00;;;;;;6385944;22;20198;-79
2022/01/20 04:03:23;;;;;;;10.15;3.42;;;2.90;1.00;;;;;;6373513;22;20194;-79
2022/01/20 04:05:57;;;;;;;8.15;2.60;;;2.90;1.00;;;;;;6366494;22;20663;-78
2022/01/20 04:08:26;;;;;;;9.07;2.80;;;2.90;1.00;;;;;;6370238;22;20184;-82
2022/01/20 04:10:54;;;;;;;13.63;3.80;;;3.00;1.00;;;;;;6368930;22;20186;-79
2022/01/20 04:13:22;;;;;;;9.55;3.35;;;3.00;1.00;;;;;;6367050;22;20194;-80
2022/01/20 04:15:51;;;;;;;7.65;2.75;;;3.00;1.00;;;;;;6380109;22;20818;-78
2022/01/20 04:18:21;;;;;;;13.02;3.42;;;3.00;1.00;;;;;;6375119;22;20196;-78
2022/01/20 04:20:49;;;;;;;11.90;3.47;;;3.10;1.00;;;;;;6373192;22;20194;-79
2022/01/20 04:23:19;;;;;;;13.38;2.75;;;3.10;1.00;;;;;;6375707;22;20248;-80
2022/01/20 04:25:47;;;;;;;12.80;3.47;;;3.10;1.00;;;;;;6367552;22;20955;-79
2022/01/20 04:28:14;;;;;;;11.00;3.03;;;3.10;1.00;;;;;;6370164;22;20186;-79
2022/01/20 04:30:44;;;;;;;5.70;2.33;;;3.20;1.00;;;;;;6367843;22;20274;-79
2022/01/20 04:33:14;;;;;;;14.30;4.07;;;3.10;1.00;;;;;;6367565;22;20198;-81
2022/01/20 04:35:42;;;;;;;7.93;2.13;;;2.90;1.00;;;;;;6371981;22;20193;-81
2022/01/20 04:38:10;;;;;;;7.15;2.28;;;2.40;1.00;;;;;;6369666;22;20289;-79
2022/01/20 04:40:41;;;;;;;4.18;1.38;;;2.10;1.00;;;;;;6366503;22;20214;-80
2022/01/20 04:43:09;;;;;;;4.82;1.75;;;1.90;1.00;;;;;;6369356;22;20198;-79
2022/01/20 04:45:41;;;;;;;6.53;1.50;;;1.70;1.00;;;;;;6369540;22;20187;-80
2022/01/20 04:48:26;;;;;;;6.38;2.05;;;1.60;1.00;;;;;;6395499;22;20182;-80
2022/01/20 04:59:11;;;;;;;3.53;1.67;;;1.20;1.00;;;;;;6367670;22;20194;-79
2022/01/20 05:01:44;;;;;;;8.75;2.38;;;1.20;1.00;;;;;;6359298;22;20434;-78
2022/01/20 05:04:14;;;;;;;7.43;2.75;;;1.10;1.00;;;;;;6389367;22;20186;-80
2022/01/20 05:06:46;;;;;;;4.82;2.85;;;1.20;1.00;;;;;;6367389;22;20178;-78
2022/01/20 05:09:18;;;;;;;10.98;2.55;;;1.20;1.00;;;;;;6367766;22;20673;-80
2022/01/20 05:11:50;;;;;;;7.63;2.83;;;1.20;1.00;;;;;;6369621;22;20256;-79
2022/01/20 05:14:18;;;;;;;4.40;2.20;;;1.20;1.00;;;;;;6364586;22;20201;-80
2022/01/20 05:16:48;;;;;;;7.75;2.22;;;1.20;1.00;;;;;;6365086;22;20174;-79
2022/01/20 05:19:15;;;;;;;9.40;1.95;;;1.30;1.00;;;;;;6366312;22;20186;-78
2022/01/20 05:21:50;;;;;;;7.65;2.22;;;1.30;1.00;;;;;;6364148;22;20194;-77
2022/01/20 05:24:17;;;;;;;12.02;3.20;;;1.40;1.00;;;;;;6364401;22;20273;-78
2022/01/20 05:26:46;;;;;;;6.00;2.90;;;1.40;1.00;;;;;;6367445;22;20804;-79
2022/01/20 05:29:16;;;;;;;9.05;1.90;;;1.40;1.00;;;;;;6368189;22;20186;-81
2022/01/20 05:31:46;;;;;;;8.38;3.30;;;1.40;1.00;;;;;;6367112;22;20190;-79
2022/01/20 05:34:17;;;;;;;9.40;2.55;;;1.40;1.00;;;;;;6370233;22;20190;-79
2022/01/20 05:36:52;;;;;;;6.88;2.97;;;1.40;1.00;;;;;;6383512;22;20709;-79
2022/01/20 05:39:20;;;;;;;11.77;2.40;;;1.50;1.00;;;;;;6367291;22;20192;-80
2022/01/20 05:41:50;;;;;;;12.48;2.85;;;1.50;1.00;;;;;;6379856;22;20194;-78
2022/01/20 05:44:17;;;;;;;7.80;2.20;;;1.50;1.00;;;;;;6384319;22;20213;-79
2022/01/20 05:46:49;;;;;;;12.25;2.78;;;1.50;1.00;;;;;;6387420;22;20195;-79
2022/01/20 05:49:20;;;;;;;6.13;2.60;;;1.50;1.00;;;;;;6378383;22;20175;-79
2022/01/20 05:51:55;;;;;;;8.95;2.60;;;1.40;1.00;;;;;;6377479;22;20955;-79
2022/01/20 05:54:24;;;;;;;10.68;3.05;;;1.40;1.00;;;;;;6375038;22;20169;-78
2022/01/20 05:56:52;;;;;;;7.00;2.42;;;1.50;1.00;;;;;;6384667;22;20212;-78
2022/01/20 05:59:23;;;;;;;8.20;2.50;;;1.50;1.00;;;;;;6383126;22;20197;-79
2022/01/20 06:01:59;;;;;;;7.47;3.08;;;1.60;1.00;;;;;;6385033;22;20178;-77
2022/01/20 06:04:31;;;;;;;9.57;2.67;;;1.70;1.00;;;;;;6392154;22;20178;-80
2022/01/20 06:07:03;;;;;;;9.07;2.60;;;1.70;1.00;;;;;;6393024;22;20189;-78
2022/01/20 06:09:30;;;;;;;7.25;2.35;;;1.80;1.00;;;;;;6392065;22;20190;-79
2022/01/20 06:12:07;;;;;;;10.32;2.38;;;1.90;1.00;;;;;;6380169;22;20195;-79
2022/01/20 06:14:34;;;;;;;6.22;1.90;;;2.00;1.00;;;;;;6372580;22;20177;-80
2022/01/20 06:17:02;;;;;;;5.63;2.05;;;2.00;1.00;;;;;;6366989;22;20198;-79
2022/01/20 06:19:35;;;;;;;5.82;2.60;;;2.00;1.00;;;;;;6369954;22;20182;-79
2022/01/20 06:22:05;;;;;;;8.05;2.15;;;2.10;1.00;;;;;;6366503;22;20286;-79
2022/01/20 06:24:35;;;;;;;6.22;1.90;;;2.00;1.00;;;;;;6368871;22;20277;-78
2022/01/20 06:27:03;;;;;;;9.85;2.60;;;2.00;1.00;;;;;;6394880;22;20289;-83
2022/01/20 06:29:30;;;;;;;12.27;2.72;;;1.90;1.00;;;;;;6369621;22;20189;-81
2022/01/20 06:32:03;;;;;;;6.85;2.70;;;1.70;1.00;;;;;;6371272;22;20194;-82
2022/01/20 06:34:30;;;;;;;7.50;2.50;;;1.60;1.00;;;;;;6372813;22;20224;-81
2022/01/20 06:37:00;;;;;;;7.03;1.85;;;1.50;1.00;;;;;;6399931;22;20743;-81
2022/01/20 06:39:29;;;;;;;6.47;2.40;;;1.40;1.00;;;;;;6372852;22;20541;-83
2022/01/20 06:41:56;;;;;;;4.53;2.13;;;1.40;1.00;;;;;;6372000;22;20190;-82
2022/01/20 06:44:27;;;;;;;5.05;1.85;;;1.40;1.00;;;;;;6372732;22;20266;-81
2022/01/20 06:46:56;;;;;;;2.53;1.33;;;1.40;1.00;;;;;;6369846;22;20201;-80
2022/01/20 06:49:24;;;;;;;5.95;2.05;;;1.40;1.00;;;;;;6366700;22;20191;-81
2022/01/20 06:51:58;;;;;;;7.85;2.33;;;1.40;1.00;;;;;;6370455;22;20191;-79
2022/01/20 06:54:45;;;;;;;6.40;1.98;;;1.30;1.00;;;;;;6372880;22;20229;-79
2022/01/20 06:57:23;;;;;;;5.93;2.53;;;1.40;1.00;;;;;;6366928;22;20301;-80
2022/01/20 07:00:04;;;;;;;7.65;2.95;;;1.30;1.00;;;;;;6369465;22;20198;-80
2022/01/20 07:02:34;;;;;;;13.57;6.30;;;1.30;1.00;;;;;;6371773;22;20301;-78
2022/01/20 07:05:05;;;;;;;3.08;1.40;;;1.30;1.00;;;;;;6367985;22;20194;-78
2022/01/20 07:07:32;;;;;;;4.18;1.73;;;1.30;1.00;;;;;;6370439;22;20222;-79
2022/01/20 07:10:11;;;;;;;11.50;2.53;;;1.40;1.00;;;;;;6371637;22;21052;-79
2022/01/20 07:12:41;;;;;;;8.82;2.75;;;1.40;1.00;;;;;;6387880;22;20603;-79
2022/01/20 07:15:09;;;;;;;7.93;2.00;;;1.40;1.00;;;;;;6369914;22;20190;-81
2022/01/20 07:17:37;;;;;;;6.07;2.13;;;1.40;1.00;;;;;;6363284;22;20198;-81
2022/01/20 07:20:07;;;;;;;5.65;1.67;;;1.30;1.00;;;;;;6361183;22;20209;-80
2022/01/20 07:22:35;;;;;;;3.92;1.50;;;1.10;1.00;;;;;;6372220;22;20285;-81
2022/01/20 07:25:04;;;;;;;5.88;1.60;;;1.00;1.00;;;;;;6366140;22;20194;-81
2022/01/20 07:27:32;;;;;;;3.88;1.40;;;1.00;1.00;;;;;;6368054;22;20210;-81
2022/01/20 07:30:10;;;;;;;3.95;1.45;;;0.90;1.00;;;;;;6366239;22;20442;-80
2022/01/20 07:32:40;;;;;;;7.63;2.03;;;0.80;1.00;;;;;;6369725;22;20196;-80
2022/01/20 07:35:12;;;;;;;6.80;2.65;;;0.70;1.00;;;;;;6369364;22;20193;-80
2022/01/20 07:37:40;;;;;;;6.30;2.53;;;0.60;1.00;;;;;;6369663;22;20296;-80
2022/01/20 07:40:20;;;;;;;11.50;2.95;;;0.50;1.00;;;;;;6369253;22;20943;-80
2022/01/20 07:42:50;;;;;;;6.40;2.28;;;0.50;1.00;;;;;;6383116;22;20242;-79
2022/01/20 07:45:19;;;;;;;4.55;2.63;;;0.40;1.00;;;;;;6416604;22;20195;-78
2022/01/20 07:47:47;;;;;;;7.45;2.17;;;0.40;1.00;;;;;;6370226;22;20190;-81
2022/01/20 07:50:20;;;;;;;7.80;2.05;;;0.40;1.00;;;;;;6367302;22;20193;-80
2022/01/20 07:52:58;;;;;;;4.75;1.90;;;0.50;1.00;;;;;;6372352;22;20955;-78
2022/01/20 07:55:31;;;;;;;4.93;2.35;;;0.50;1.00;;;;;;6378873;22;20186;-79
2022/01/20 07:58:02;;;;;;;6.10;1.95;;;0.60;1.00;;;;;;6377189;22;20205;-78
2022/01/20 08:00:36;;;;;;;4.32;2.47;;;0.70;1.00;;;;;;6369068;22;20205;-78
2022/01/20 08:03:07;;;;;;;9.15;3.08;;;0.70;1.00;;;;;;6373984;22;20190;-79
2022/01/20 08:05:44;;;;;;;9.95;2.42;;;0.80;1.00;;;;;;6370563;22;20196;-79
2022/01/20 08:08:14;;;;;;;4.63;1.95;;;0.90;1.00;;;;;;6367058;22;20197;-77
2022/01/20 08:10:48;;;;;;;6.70;2.22;;;1.00;1.00;;;;;;6364121;22;20182;-79
2022/01/20 08:13:24;;;;;;;10.52;2.35;;;1.10;1.00;;;;;;6365760;22;20209;-81
2022/01/20 08:16:08;;;;;;;9.35;2.30;;;1.20;1.00;;;;;;6369223;22;20174;-77
2022/01/20 08:18:43;;;;;;;11.00;3.05;;;1.30;1.00;;;;;;6382097;22;20171;-78
2022/01/20 08:21:28;;;;;;;10.57;2.20;;;1.30;1.00;;;;;;6379432;22;20291;-80
2022/01/20 08:23:56;;;;;;;12.30;2.60;;;1.40;1.00;;;;;;6372313;22;20253;-79
2022/01/20 08:26:32;;;;;;;10.50;3.65;;;1.70;1.00;;;;;;6365982;22;21048;-82
2022/01/20 08:28:59;;;;;;;4.63;2.65;;;2.00;1.00;;;;;;6396146;22;20298;-78
2022/01/20 08:31:29;;;;;;;5.75;2.65;;;2.30;1.00;;;;;;6368220;22;20228;-80
2022/01/20 08:33:56;;;;;;;11.80;2.70;;;2.30;1.00;;;;;;6362870;22;20412;-80
2022/01/20 08:36:24;;;;;;;8.07;2.50;;;2.10;1.00;;;;;;6391582;22;20392;-79
2022/01/20 08:38:55;;;;;;;9.40;3.20;;;2.00;1.00;;;;;;6364673;22;20277;-79
2022/01/20 08:41:22;;;;;;;8.40;3.22;;;2.00;1.00;;;;;;6364768;22;20285;-79
2022/01/20 08:43:59;;;;;;;6.47;2.30;;;1.90;1.00;;;;;;6365381;22;20672;-80
2022/01/20 08:46:41;;;;;;;7.88;2.88;;;1.80;1.00;;;;;;6365387;22;20259;-79
2022/01/20 08:49:09;;;;;;;11.20;4.00;;;1.80;1.00;;;;;;6384059;22;21058;-79
2022/01/20 08:54:50;;;;;;;15.13;3.15;;;2.00;1.00;;;;;;6362233;22;20277;-79
2022/01/20 08:57:22;;;;;;;12.55;3.58;;;2.20;1.00;;;;;;6366553;22;20194;-79
2022/01/20 08:59:52;;;;;;;11.70;2.92;;;2.30;1.00;;;;;;6365067;22;20190;-81
2022/01/20 09:02:23;;;;;;;11.57;3.13;;;2.30;1.00;;;;;;6364292;22;20213;-82
2022/01/20 09:04:50;;;;;;;8.00;2.92;;;2.30;1.00;;;;;;6363815;22;20202;-80
2022/01/20 09:07:21;;;;;;;7.15;3.60;;;2.30;1.00;;;;;;6394721;22;20195;-84
2022/01/20 09:10:00;;;;;;;14.05;3.50;;;2.30;1.00;;;;;;6373821;22;20195;-81
2022/01/20 09:15:33;;;;;;;9.52;3.28;;;2.70;1.00;;;;;;6370104;22;20657;-82
2022/01/20 09:18:18;;;;;;;11.40;4.20;;;3.00;1.00;;;;;;6407916;22;20214;-82
2022/01/20 09:20:50;;;;;;;13.50;3.33;;;3.20;1.00;;;;;;6379212;22;20209;-80
2022/01/20 09:23:20;;;;;;;7.07;3.38;;;3.10;1.00;;;;;;6416897;22;20186;-81
2022/01/20 09:47:53;;;;;;;7.60;3.15;;;2.80;1.00;;;;;;6332418;22;20249;-78
2022/01/20 09:50:29;;;;;;;12.32;3.92;;;2.70;1.00;;;;;;6368110;22;20238;-79
2022/01/20 09:53:02;;;;;;;10.75;3.25;;;2.70;1.00;;;;;;6363910;22;20201;-79
2022/01/20 09:55:35;;;;;;;10.20;3.25;;;2.70;1.00;;;;;;6338561;22;20317;-79
2022/01/20 09:58:27;;;;;;;7.40;2.92;;;2.70;1.00;;;;;;6337934;22;20197;-78
2022/01/20 10:01:04;;;;;;;13.77;3.25;;;2.70;1.00;;;;;;6367165;22;20194;-78
2022/01/20 10:06:55;;;;;;;10.48;3.67;;;2.90;1.00;;;;;;6338181;22;20202;-80
2022/01/20 10:09:33;;;;;;;7.13;3.40;;;2.90;1.00;;;;;;6364550;22;20185;-79
2022/01/20 10:12:07;;;;;;;8.10;2.97;;;2.90;1.00;;;;;;6362702;22;20190;-80
2022/01/20 10:14:48;;;;;;;8.88;3.42;;;2.90;1.00;;;;;;6339507;22;20196;-79
2022/01/20 10:17:20;;;;;;;6.75;3.67;;;3.00;1.00;;;;;;6367519;22;20261;-79
2022/01/20 10:19:54;;;;;;;7.95;3.72;;;3.20;1.00;;;;;;6369662;22;20212;-78
2022/01/20 10:22:27;;;;;;;10.45;2.90;;;3.30;1.00;;;;;;6336743;22;20308;-78
2022/01/20 10:25:08;;;;;;;12.80;4.00;;;3.30;1.00;;;;;;6345146;22;20209;-78
2022/01/20 10:27:53;;;;;;;6.18;3.20;;;3.20;1.00;;;;;;6349793;22;20190;-78
2022/01/20 10:30:38;;;;;;;12.27;3.67;;;3.20;1.00;;;;;;6352184;22;20294;-78
2022/01/20 10:33:11;;;;;;;9.65;3.00;;;3.60;1.00;;;;;;6389288;22;20198;-79
2022/01/20 10:35:45;;;;;;;10.02;2.95;;;3.80;1.00;;;;;;6401954;22;20246;-79
2022/01/20 10:38:32;;;;;;;10.55;3.22;;;4.10;1.00;;;;;;6400170;22;20198;-80
2022/01/20 10:41:08;;;;;;;7.75;3.08;;;4.40;1.00;;;;;;6369694;22;20205;-79
2022/01/20 10:43:41;;;;;;;10.43;2.88;;;4.30;1.00;;;;;;6371486;22;20193;-79
2022/01/20 10:46:27;;;;;;;11.43;3.38;;;4.30;1.00;;;;;;6376058;22;20189;-78
2022/01/20 10:49:12;;;;;;;9.10;2.88;;;4.10;1.00;;;;;;6404715;22;20186;-78
2022/01/20 10:52:00;;;;;;;10.40;3.30;;;3.80;1.00;;;;;;6370067;22;20186;-78
2022/01/20 10:54:49;;;;;;;13.10;4.13;;;3.80;1.00;;;;;;6403061;22;20200;-79
2022/01/20 10:57:24;;;;;;;7.70;2.67;;;3.90;1.00;;;;;;6395833;22;20268;-79
2022/01/20 11:00:19;;;;;;;13.13;2.88;;;3.80;1.00;;;;;;6372178;22;20216;-81
2022/01/20 11:03:02;;;;;;;7.40;3.30;;;3.60;1.00;;;;;;6368393;22;21006;-79
2022/01/20 11:05:56;;;;;;;11.70;2.97;;;3.70;1.00;;;;;;6399916;22;20266;-78
2022/01/20 11:08:37;;;;;;;9.27;3.28;;;4.10;1.00;;;;;;6399452;22;20306;-78
2022/01/20 11:11:40;;;;;;;9.13;3.17;;;4.40;1.00;;;;;;6397777;22;20898;-77
2022/01/20 11:14:20;;;;;;;9.52;3.38;;;4.30;1.00;;;;;;6399888;22;21173;-78
2022/01/20 11:16:58;;;;;;;5.72;2.47;;;4.40;1.00;;;;;;6399573;22;20185;-78
2022/01/20 11:19:37;;;;;;;8.00;3.20;;;4.20;1.00;;;;;;6405920;22;20189;-77
2022/01/20 11:22:19;;;;;;;7.28;3.22;;;4.10;1.00;;;;;;6385529;22;20236;-77
2022/01/20 11:25:06;;;;;;;8.88;3.30;;;4.00;1.00;;;;;;6368668;22;20936;-79
2022/01/20 11:28:15;;;;;;;10.50;3.75;;;4.30;1.00;;;;;;6372997;22;20185;-78
2022/01/20 11:31:08;;;;;;;8.80;3.83;;;4.40;1.00;;;;;;6397542;22;20185;-78
2022/01/20 11:33:47;;;;;;;9.48;3.10;;;4.50;1.00;;;;;;6395981;22;20753;-78
2022/01/20 11:36:28;;;;;;;9.75;3.67;;;4.80;1.00;;;;;;6397630;22;20197;-77
2022/01/20 11:39:15;;;;;;;9.70;3.00;;;4.80;1.00;;;;;;6370583;22;20227;-78
2022/01/20 11:41:53;;;;;;;10.07;3.60;;;4.50;1.00;;;;;;6393781;22;20266;-78
2022/01/20 11:44:26;;;;;;;7.53;3.05;;;4.40;1.00;;;;;;6361027;22;20252;-77
2022/01/20 11:47:06;;;;;;;6.47;2.65;;;4.50;1.00;;;;;;6367079;22;20182;-76
2022/01/20 11:49:36;;;;;;;6.50;2.83;;;4.90;1.00;;;;;;6361933;22;20190;-76
2022/01/20 11:52:12;;;;;;;7.18;3.00;;;5.40;1.00;;;;;;6365853;22;20248;-77
2022/01/20 11:54:41;;;;;;;13.50;2.83;;;5.60;1.00;;;;;;6364469;22;20213;-76
2022/01/20 11:57:16;;;;;;;6.10;2.42;;;5.40;1.00;;;;;;6365140;22;20186;-79
2022/01/20 11:59:52;;;;;;;6.63;2.50;;;5.70;1.00;;;;;;6363239;22;20180;-76
2022/01/20 12:02:28;;;;;;;8.65;3.10;;;5.70;1.00;;;;;;6375613;22;20284;-76
2022/01/20 12:04:58;;;;;;;7.90;2.67;;;5.20;1.00;;;;;;6344849;22;20270;-76
2022/01/20 12:07:31;;;;;;;6.35;2.10;;;4.80;1.00;;;;;;6364381;22;20198;-77
2022/01/20 12:10:14;;;;;;;10.40;2.88;;;4.60;1.00;;;;;;6331623;22;20300;-77
2022/01/20 12:12:46;;;;;;;7.63;2.67;;;4.30;1.00;;;;;;6337745;22;20239;-79
2022/01/20 12:15:15;;;;;;;9.95;3.88;;;4.30;1.00;;;;;;6338184;22;20182;-79
2022/01/20 12:17:49;;;;;;;12.00;3.00;;;4.40;1.00;;;;;;6340047;22;20194;-79
2022/01/20 12:20:20;;;;;;;8.95;3.15;;;4.50;1.00;;;;;;6363801;22;20189;-79
2022/01/20 12:22:49;;;;;;;6.25;3.28;;;4.40;1.00;;;;;;6339780;22;20202;-80
2022/01/20 12:25:24;;;;;;;8.82;2.63;;;4.50;1.00;;;;;;6370048;22;20697;-81
2022/01/20 12:28:05;;;;;;;9.30;2.65;;;4.90;1.00;;;;;;6370416;22;20197;-79
2022/01/20 12:30:33;;;;;;;6.55;2.10;;;5.00;1.00;;;;;;6362842;22;20177;-80
2022/01/20 12:33:06;;;;;;;6.55;2.10;;;5.80;1.00;;;;;;6372749;22;20186;-77
2022/01/20 12:35:41;;;;;;;6.40;2.30;;;6.90;1.00;;;;;;6355994;22;20180;-79
2022/01/20 12:38:25;;;;;;;10.25;3.42;;;7.40;1.00;;;;;;6387979;22;20189;-79
2022/01/20 12:41:05;;;;;;;6.38;2.70;;;8.20;1.00;;;;;;6361667;22;20170;-81
2022/01/20 12:43:38;;;;;;;9.60;2.55;;;9.10;1.00;;;;;;6388443;22;20260;-79
2022/01/20 12:54:04;;;;;;;5.80;2.10;;;8.80;1.00;;;;;;6213368;22;21193;-82
2022/01/20 13:08:43;;;;;;;6.97;2.38;;;9.10;1.00;;;;;;5973559;23;20406;-80
2022/01/20 13:11:18;;;;;;;6.13;2.33;;;7.40;1.00;;;;;;6213466;22;20250;-81
2022/01/20 13:13:54;;;;;;;13.20;3.03;;;6.40;1.00;;;;;;6373753;22;20290;-80
2022/01/20 13:16:24;;;;;;;10.55;3.17;;;6.20;1.00;;;;;;6349211;22;20209;-81
2022/01/20 13:18:56;;;;;;;5.97;2.35;;;6.80;1.00;;;;;;6376004;22;20217;-80
2022/01/20 13:21:35;;;;;;;5.47;2.22;;;8.00;1.00;;;;;;6369120;22;20187;-81
2022/01/20 13:24:08;;;;;;;9.45;2.97;;;9.30;1.00;;;;;;6371520;22;20205;-80
2022/01/20 13:26:57;;;;;;;4.38;2.33;;;9.50;1.00;;;;;;6369130;22;20191;-82
2022/01/20 13:29:40;;;;;;;8.65;2.55;;;9.30;1.00;;;;;;6379896;22;20707;-80
2022/01/20 13:32:10;;;;;;;8.73;2.67;;;9.10;1.00;;;;;;6371597;22;20204;-79
2022/01/20 13:34:41;;;;;;;8.40;2.80;;;8.30;1.00;;;;;;6362972;22;20563;-80
2022/01/20 13:37:16;;;;;;;8.77;2.65;;;7.70;1.00;;;;;;6387692;22;20671;-78
2022/01/20 13:39:47;;;;;;;9.15;2.70;;;7.30;1.00;;;;;;6351072;22;20223;-79
2022/01/20 13:42:30;;;;;;;9.48;2.63;;;7.00;1.00;;;;;;6349665;22;20341;-78
2022/01/20 13:45:13;;;;;;;12.15;2.95;;;6.40;1.00;;;;;;6365972;22;20202;-80
2022/01/20 13:47:52;;;;;;;16.45;3.47;;;5.70;1.00;;;;;;6368780;22;20183;-80
2022/01/20 13:50:21;;;;;;;8.30;3.50;;;5.10;1.00;;;;;;6338759;22;20194;-80
2022/01/20 13:52:48;;;;;;;6.03;2.50;;;4.80;1.00;;;;;;6366553;22;20457;-80
2022/01/20 13:55:27;;;;;;;7.60;2.80;;;4.40;1.00;;;;;;6361531;22;20248;-80
2022/01/20 13:57:55;;;;;;;7.30;2.45;;;4.10;1.00;;;;;;6365008;22;21129;-81
2022/01/20 14:00:24;;;;;;;9.45;4.07;;;3.90;1.00;;;;;;6338922;22;20348;-80
2022/01/20 14:02:53;;;;;;;8.10;2.90;;;3.70;1.00;;;;;;6334301;22;20288;-84
2022/01/20 14:05:22;;;;;;;6.85;2.42;;;3.60;1.00;;;;;;6337488;22;20699;-80
2022/01/20 14:07:52;;;;;;;8.50;3.08;;;3.50;1.00;;;;;;6335346;22;20214;-81
2022/01/20 14:10:19;;;;;;;10.02;3.25;;;3.30;1.00;;;;;;6367135;22;20212;-79
2022/01/20 14:12:51;;;;;;;8.85;3.92;;;3.30;1.00;;;;;;6367178;22;20197;-81
2022/01/20 14:15:21;;;;;;;8.82;2.75;;;3.20;1.00;;;;;;6340442;22;20178;-81
2022/01/20 14:17:54;;;;;;;8.18;2.50;;;3.20;1.00;;;;;;6339040;22;20358;-81
2022/01/20 14:20:27;;;;;;;10.32;2.72;;;3.10;1.00;;;;;;6377368;22;20192;-81
2022/01/20 14:22:55;;;;;;;10.10;3.25;;;3.10;1.00;;;;;;6377883;22;20194;-79
2022/01/20 14:25:30;;;;;;;7.20;3.03;;;3.10;1.00;;;;;;6345609;22;20194;-81
2022/01/20 14:27:59;;;;;;;6.85;2.45;;;3.20;1.00;;;;;;6337267;22;20186;-79
2022/01/20 14:30:37;;;;;;;19.13;3.85;;;3.30;1.00;;;;;;6362960;22;20182;-81
2022/01/20 14:33:06;;;;;;;7.05;3.22;;;3.20;1.00;;;;;;6332294;22;20263;-81
2022/01/20 14:35:35;;;;;;;13.10;3.83;;;3.30;1.00;;;;;;6336307;22;20680;-81
2022/01/20 14:38:05;;;;;;;13.55;4.05;;;3.30;1.00;;;;;;6363378;22;20194;-81
2022/01/20 14:40:38;;;;;;;11.25;3.70;;;3.40;1.00;;;;;;6361974;22;20193;-80
2022/01/20 14:43:12;;;;;;;6.53;2.15;;;3.40;1.00;;;;;;6373064;22;20206;-79
2022/01/20 14:45:46;;;;;;;6.65;2.33;;;3.30;1.00;;;;;;6366021;22;20632;-80
2022/01/20 14:48:17;;;;;;;6.03;1.75;;;3.10;1.00;;;;;;6364114;22;20276;-79
2022/01/20 14:50:51;;;;;;;4.80;2.00;;;2.90;1.00;;;;;;6359379;22;20238;-80
2022/01/20 14:53:23;;;;;;;3.33;1.60;;;2.80;1.00;;;;;;6392991;22;20194;-80
2022/01/20 14:55:59;;;;;;;5.15;2.20;;;2.70;1.00;;;;;;6365646;22;20187;-82
2022/01/20 14:58:34;;;;;;;4.07;2.13;;;2.70;1.00;;;;;;6361653;22;20215;-80
2022/01/20 15:01:02;;;;;;;5.32;3.05;;;2.70;1.00;;;;;;6363725;22;20214;-80
2022/01/20 15:03:31;;;;;;;5.72;1.70;;;2.60;1.00;;;;;;6364858;22;20201;-80
2022/01/20 15:06:04;;;;;;;3.85;1.65;;;2.60;1.00;;;;;;6392351;22;20198;-82
2022/01/20 15:08:37;;;;;;;7.15;2.55;;;2.60;1.00;;;;;;6367439;22;20256;-79